createdAt,value
2023-03-30T00:01:42.185Z,4.40
2023-03-30T00:04:12.351Z,3.00
2023-03-30T00:06:43.014Z,2.35
2023-03-30T00:09:12.248Z,3.42
2023-03-30T00:11:40.754Z,3.30
2023-03-30T00:14:07.226Z,2.72
2023-03-30T00:16:33.734Z,2.38
2023-03-30T00:19:00.512Z,2.78
2023-03-30T00:21:28.107Z,2.58
2023-03-30T00:23:54.696Z,3.45
2023-03-30T00:26:21.370Z,3.38
2023-03-30T00:28:47.848Z,2.40
2023-03-30T00:31:14.344Z,2.38
2023-03-30T00:33:47.140Z,3.60
2023-03-30T00:36:15.661Z,3.83
2023-03-30T00:38:42.352Z,3.67
2023-03-30T00:41:09.324Z,5.50
2023-03-30T00:43:54.745Z,4.20
2023-03-30T00:46:22.758Z,4.20
2023-03-30T00:48:49.380Z,4.00
2023-03-30T00:51:16.340Z,4.22
2023-03-30T00:53:47.704Z,4.07
2023-03-30T00:56:17.618Z,4.65
2023-03-30T00:58:44.962Z,5.32
2023-03-30T01:01:15.111Z,5.07
2023-03-30T01:03:47.949Z,4.43
2023-03-30T01:06:17.980Z,3.88
2023-03-30T01:08:45.273Z,3.83
2023-03-30T01:11:14.220Z,5.15
2023-03-30T01:13:45.494Z,5.25
2023-03-30T01:16:38.430Z,5.63
2023-03-30T01:19:45.995Z,4.75
2023-03-30T01:22:18.302Z,5.10
2023-03-30T01:25:03.716Z,5.78
2023-03-30T01:27:48.410Z,5.57
2023-03-30T01:30:48.615Z,5.75
2023-03-30T01:33:47.480Z,4.95
2023-03-30T01:36:50.264Z,4.93
2023-03-30T01:39:28.992Z,4.55
2023-03-30T01:42:17.399Z,4.32
2023-03-30T01:44:54.368Z,4.30
2023-03-30T01:47:45.354Z,4.05
2023-03-30T01:50:19.444Z,3.60
2023-03-30T01:53:01.347Z,3.88
2023-03-30T01:55:41.533Z,2.63
2023-03-30T01:58:15.802Z,2.33
2023-03-30T02:00:51.907Z,2.83
2023-03-30T02:03:28.438Z,3.42
2023-03-30T02:06:03.871Z,2.35
2023-03-30T02:08:33.691Z,2.70
2023-03-30T02:11:00.476Z,3.90
2023-03-30T02:13:30.054Z,3.75
2023-03-30T02:16:02.715Z,2.85
2023-03-30T02:18:29.335Z,2.85
2023-03-30T02:20:58.938Z,3.13
2023-03-30T02:23:30.517Z,3.20
2023-03-30T02:25:57.769Z,3.53
2023-03-30T02:28:24.241Z,2.97
2023-03-30T02:30:50.762Z,2.55
2023-03-30T02:33:34.862Z,3.88
2023-03-30T02:36:28.980Z,3.22
2023-03-30T02:39:33.764Z,3.25
2023-03-30T02:42:30.178Z,2.78
2023-03-30T02:45:24.017Z,3.40
2023-03-30T02:47:53.242Z,3.22
2023-03-30T02:50:32.193Z,2.58
2023-03-30T02:53:34.294Z,2.88
2023-03-30T02:56:06.694Z,2.22
2023-03-30T02:58:33.131Z,2.50
2023-03-30T03:01:37.620Z,2.63
2023-03-30T03:04:06.766Z,1.73
2023-03-30T03:06:33.328Z,2.13
2023-03-30T03:09:00.359Z,2.58
2023-03-30T03:11:27.157Z,3.08
2023-03-30T03:13:53.782Z,2.22
2023-03-30T03:16:20.560Z,1.65
2023-03-30T03:18:47.124Z,1.90
2023-03-30T03:21:14.144Z,2.10
2023-03-30T03:23:41.202Z,1.80
2023-03-30T03:26:08.665Z,2.13
2023-03-30T03:28:35.909Z,2.13
2023-03-30T03:31:03.695Z,2.53
2023-03-30T03:33:33.436Z,3.08
2023-03-30T03:36:00.398Z,2.10
2023-03-30T03:38:27.372Z,2.20
2023-03-30T03:40:56.305Z,2.53
2023-03-30T03:43:23.213Z,1.80
2023-03-30T03:45:54.594Z,2.33
2023-03-30T03:48:24.928Z,1.60
2023-03-30T03:50:58.865Z,1.48
2023-03-30T03:53:27.604Z,1.35
2023-03-30T03:55:54.747Z,1.42
2023-03-30T03:58:25.049Z,1.73
2023-03-30T04:01:02.372Z,2.05
2023-03-30T04:03:29.099Z,1.63
2023-03-30T04:05:59.016Z,1.60
2023-03-30T04:08:25.757Z,1.50
2023-03-30T04:10:53.561Z,1.88
2023-03-30T04:13:20.082Z,1.52
2023-03-30T04:15:46.514Z,1.77
2023-03-30T04:18:12.994Z,1.88
2023-03-30T04:20:39.539Z,1.52
2023-03-30T04:23:05.965Z,2.05
2023-03-30T04:25:32.520Z,2.17
2023-03-30T04:27:59.066Z,2.15
2023-03-30T04:30:25.615Z,1.92
2023-03-30T04:33:02.891Z,1.40
2023-03-30T04:35:34.318Z,1.65
2023-03-30T04:38:02.528Z,1.58
2023-03-30T04:40:29.650Z,2.05
2023-03-30T04:43:02.180Z,1.30
2023-03-30T04:45:31.996Z,1.73
2023-03-30T04:47:58.693Z,1.63
2023-03-30T04:50:25.430Z,2.15
2023-03-30T04:52:54.568Z,2.10
2023-03-30T04:55:21.061Z,1.75
2023-03-30T04:57:47.480Z,1.65
2023-03-30T05:00:14.439Z,2.00
2023-03-30T05:02:41.072Z,2.30
2023-03-30T05:05:08.132Z,2.10
2023-03-30T05:07:34.591Z,1.17
2023-03-30T05:10:01.007Z,2.15
2023-03-30T05:12:27.602Z,2.35
2023-03-30T05:14:57.062Z,1.70
2023-03-30T05:17:26.641Z,2.35
2023-03-30T05:19:56.992Z,1.83
2023-03-30T05:22:27.022Z,2.15
2023-03-30T05:24:56.746Z,2.05
2023-03-30T05:27:24.390Z,1.30
2023-03-30T05:29:50.994Z,2.00
2023-03-30T05:32:17.421Z,2.20
2023-03-30T05:34:43.837Z,2.00
2023-03-30T05:37:10.869Z,1.77
2023-03-30T05:39:37.868Z,1.73
2023-03-30T05:42:05.531Z,1.52
2023-03-30T05:44:31.972Z,1.70
2023-03-30T05:46:58.461Z,1.75
2023-03-30T05:49:25.159Z,1.80
2023-03-30T05:51:52.535Z,3.10
2023-03-30T05:54:19.439Z,1.73
2023-03-30T05:56:45.909Z,1.40
2023-03-30T05:59:13.041Z,1.67
2023-03-30T06:01:40.152Z,1.95
2023-03-30T06:04:07.952Z,2.00
2023-03-30T06:06:34.464Z,1.75
2023-03-30T06:09:02.688Z,1.75
2023-03-30T06:11:29.417Z,2.30
2023-03-30T06:13:56.143Z,1.90
2023-03-30T06:16:26.477Z,1.50
2023-03-30T06:18:56.134Z,1.52
2023-03-30T06:21:25.181Z,1.90
2023-03-30T06:23:56.892Z,1.65
2023-03-30T06:26:26.413Z,2.42
2023-03-30T06:28:54.663Z,1.55
2023-03-30T06:31:21.337Z,2.25
2023-03-30T06:33:47.887Z,1.65
2023-03-30T06:36:14.729Z,1.70
2023-03-30T06:38:43.579Z,1.70
2023-03-30T06:41:11.978Z,1.90
2023-03-30T06:43:39.122Z,1.45
2023-03-30T06:46:07.123Z,2.17
2023-03-30T06:48:33.733Z,2.25
2023-03-30T06:51:00.462Z,1.38
2023-03-30T06:53:27.053Z,1.77
2023-03-30T06:55:58.663Z,2.00
2023-03-30T06:58:27.298Z,2.22
2023-03-30T07:00:57.151Z,1.40
2023-03-30T07:03:24.747Z,1.45
2023-03-30T07:05:56.029Z,1.60
2023-03-30T07:08:24.998Z,1.48
2023-03-30T07:10:56.070Z,1.52
2023-03-30T07:13:27.470Z,1.70
2023-03-30T07:15:54.537Z,1.83
2023-03-30T07:18:21.078Z,1.50
2023-03-30T07:20:47.714Z,1.73
2023-03-30T07:23:14.880Z,1.88
2023-03-30T07:25:42.051Z,2.03
2023-03-30T07:28:08.618Z,1.98
2023-03-30T07:30:35.663Z,0.93
2023-03-30T07:33:02.761Z,2.03
2023-03-30T07:35:29.400Z,1.52
2023-03-30T07:38:02.965Z,1.63
2023-03-30T07:40:31.720Z,1.85
2023-03-30T07:42:59.096Z,1.98
2023-03-30T07:45:26.419Z,1.33
2023-03-30T07:47:57.967Z,1.58
2023-03-30T07:50:25.675Z,1.20
2023-03-30T07:52:56.493Z,1.67
2023-03-30T07:55:28.829Z,1.45
2023-03-30T07:57:56.331Z,1.25
2023-03-30T08:00:27.266Z,1.58
2023-03-30T08:02:57.436Z,1.50
2023-03-30T08:05:27.170Z,1.33
2023-03-30T08:07:58.929Z,1.42
2023-03-30T08:10:25.912Z,1.45
2023-03-30T08:12:54.356Z,1.67
2023-03-30T08:15:20.862Z,2.13
2023-03-30T08:17:47.842Z,1.17
2023-03-30T08:20:14.992Z,1.42
2023-03-30T08:22:41.878Z,2.08
2023-03-30T08:25:12.029Z,1.67
2023-03-30T08:27:41.332Z,1.30
2023-03-30T08:30:09.021Z,1.45
2023-03-30T08:32:36.163Z,1.42
2023-03-30T08:35:05.874Z,1.70
2023-03-30T08:37:32.850Z,1.63
2023-03-30T08:39:59.324Z,1.00
2023-03-30T08:42:55.868Z,1.58
2023-03-30T08:45:25.821Z,1.63
2023-03-30T08:47:54.831Z,1.13
2023-03-30T08:50:33.201Z,1.45
2023-03-30T08:53:00.313Z,1.30
2023-03-30T08:55:36.260Z,1.40
2023-03-30T08:58:14.792Z,1.40
2023-03-30T09:01:04.975Z,1.52
2023-03-30T09:03:49.904Z,1.50
2023-03-30T09:06:45.970Z,1.13
2023-03-30T09:09:15.701Z,1.27
2023-03-30T09:11:43.242Z,1.88
2023-03-30T09:14:19.666Z,1.20
2023-03-30T09:16:57.253Z,1.38
2023-03-30T09:19:33.059Z,1.25
2023-03-30T09:22:05.900Z,1.58
2023-03-30T09:24:32.452Z,1.50
2023-03-30T09:27:08.224Z,1.95
2023-03-30T09:29:43.667Z,1.35
2023-03-30T09:32:33.111Z,1.20
2023-03-30T09:35:12.164Z,1.33
2023-03-30T09:37:38.645Z,1.88
2023-03-30T09:40:43.583Z,1.13
2023-03-30T09:43:16.381Z,1.20
2023-03-30T09:45:45.297Z,1.20
2023-03-30T09:48:11.806Z,1.25
2023-03-30T09:50:48.586Z,1.60
2023-03-30T09:53:29.577Z,1.33
2023-03-30T09:56:11.251Z,1.05
2023-03-30T09:58:38.352Z,1.52
2023-03-30T10:01:18.376Z,1.77
2023-03-30T10:04:05.118Z,1.52
2023-03-30T10:06:39.026Z,1.20
2023-03-30T10:09:12.108Z,1.63
2023-03-30T10:11:45.979Z,1.42
2023-03-30T10:14:29.714Z,1.40
2023-03-30T10:16:57.964Z,1.30
2023-03-30T10:19:25.323Z,1.63
2023-03-30T10:21:59.518Z,1.73
2023-03-30T10:24:29.495Z,1.55
2023-03-30T10:26:59.817Z,1.40
2023-03-30T10:29:28.512Z,1.33
2023-03-30T10:32:27.099Z,1.50
2023-03-30T10:35:01.752Z,1.10
2023-03-30T10:37:36.242Z,2.38
2023-03-30T10:40:14.817Z,1.40
2023-03-30T10:42:41.620Z,1.45
2023-03-30T10:45:19.148Z,1.58
2023-03-30T10:48:13.674Z,2.15
2023-03-30T10:50:43.753Z,1.85
2023-03-30T10:53:47.710Z,2.10
2023-03-30T10:56:29.444Z,1.42
2023-03-30T10:59:14.418Z,1.60
2023-03-30T11:01:48.232Z,1.38
2023-03-30T11:04:43.258Z,0.95
2023-03-30T11:07:18.249Z,2.13
2023-03-30T11:09:56.685Z,2.80
2023-03-30T11:12:34.218Z,2.28
2023-03-30T11:15:17.856Z,5.30
2023-03-30T11:17:55.836Z,1.40
2023-03-30T11:20:30.604Z,1.00
2023-03-30T11:23:27.668Z,4.25
2023-03-30T11:26:06.961Z,1.25
2023-03-30T11:28:42.887Z,1.83
2023-03-30T11:31:40.269Z,1.33
2023-03-30T11:34:35.707Z,1.45
2023-03-30T11:37:21.085Z,3.80
2023-03-30T11:39:58.697Z,5.95
2023-03-30T11:42:30.415Z,2.50
2023-03-30T11:44:57.745Z,2.28
2023-03-30T11:47:48.935Z,1.10
2023-03-30T11:50:27.445Z,1.48
2023-03-30T11:53:16.238Z,1.38
2023-03-30T11:55:49.316Z,2.03
2023-03-30T11:58:43.782Z,3.25
2023-03-30T12:01:33.987Z,3.38
2023-03-30T12:04:09.770Z,4.18
2023-03-30T12:06:42.020Z,4.35
2023-03-30T12:09:38.815Z,4.00
2023-03-30T12:12:15.723Z,3.63
2023-03-30T12:15:12.161Z,4.40
2023-03-30T12:18:01.200Z,3.97
2023-03-30T12:20:39.470Z,1.48
2023-03-30T12:23:24.737Z,1.98
2023-03-30T12:26:16.346Z,1.77
2023-03-30T12:31:51.308Z,2.00
2023-03-30T12:34:18.362Z,2.08
2023-03-30T12:36:49.266Z,1.50
2023-03-30T12:39:31.108Z,2.30
2023-03-30T12:42:07.033Z,1.58
2023-03-30T12:44:49.711Z,1.48
2023-03-30T12:47:33.646Z,1.80
2023-03-30T12:50:28.060Z,2.15
2023-03-30T12:53:09.622Z,1.88
2023-03-30T12:55:39.042Z,1.67
2023-03-30T12:58:31.635Z,1.98
2023-03-30T13:01:28.619Z,2.08
2023-03-30T13:04:05.306Z,1.67
2023-03-30T13:06:35.083Z,1.73
2023-03-30T13:09:19.470Z,2.25
2023-03-30T13:11:50.189Z,2.47
2023-03-30T13:14:34.022Z,2.97
2023-03-30T13:17:00.861Z,3.38
2023-03-30T13:19:32.913Z,3.25
2023-03-30T13:22:11.430Z,3.63
2023-03-30T13:25:28.069Z,4.70
2023-03-30T13:27:58.363Z,1.90
2023-03-30T13:30:29.309Z,4.05
2023-03-30T13:33:19.047Z,2.35
2023-03-30T13:35:57.154Z,4.32
2023-03-30T13:38:29.639Z,2.92
2023-03-30T13:41:08.828Z,2.70
2023-03-30T13:43:56.630Z,3.85
2023-03-30T13:46:35.735Z,2.58
2023-03-30T13:49:12.004Z,2.67
2023-03-30T13:51:42.836Z,3.58
2023-03-30T13:54:20.826Z,2.85
2023-03-30T13:56:58.826Z,10.85
2023-03-30T13:59:31.471Z,2.75
2023-03-30T14:02:01.603Z,2.78
2023-03-30T14:04:33.366Z,2.63
2023-03-30T14:07:25.293Z,3.70
2023-03-30T14:10:15.591Z,4.05
2023-03-30T14:12:43.076Z,4.82
2023-03-30T14:15:22.168Z,3.92
2023-03-30T14:17:55.951Z,5.55
2023-03-30T14:20:37.107Z,5.32
2023-03-30T14:23:04.838Z,5.13
2023-03-30T14:25:40.565Z,5.10
2023-03-30T14:28:14.696Z,6.03
2023-03-30T14:30:53.293Z,6.45
2023-03-30T14:33:20.421Z,5.60
2023-03-30T14:35:50.074Z,4.70
2023-03-30T14:38:37.808Z,5.80
2023-03-30T14:41:14.917Z,5.00
2023-03-30T14:43:44.094Z,5.97
2023-03-30T14:46:12.481Z,6.15
2023-03-30T14:48:43.186Z,5.35
2023-03-30T14:51:41.828Z,6.68
2023-03-30T14:54:15.057Z,7.03
2023-03-30T14:56:45.150Z,5.63
2023-03-30T14:59:16.553Z,5.45
2023-03-30T15:01:44.093Z,5.72
2023-03-30T15:04:15.416Z,6.20
2023-03-30T15:06:43.849Z,5.15
2023-03-30T15:09:17.447Z,5.65
2023-03-30T15:11:47.604Z,5.93
2023-03-30T15:14:21.431Z,5.20
2023-03-30T15:16:53.772Z,5.97
2023-03-30T15:19:31.892Z,5.35
2023-03-30T15:22:03.478Z,5.95
2023-03-30T15:24:35.994Z,5.18
2023-03-30T15:27:05.863Z,6.03
2023-03-30T15:29:33.371Z,5.85
2023-03-30T15:32:01.295Z,5.10
2023-03-30T15:34:31.174Z,5.15
2023-03-30T15:36:57.808Z,5.63
2023-03-30T15:39:36.497Z,5.03
2023-03-30T15:42:05.310Z,5.32
2023-03-30T15:44:41.173Z,5.97
2023-03-30T15:47:17.366Z,5.45
2023-03-30T15:49:48.571Z,5.45
2023-03-30T15:52:35.785Z,5.63
2023-03-30T15:55:07.717Z,6.03
2023-03-30T15:57:36.567Z,5.72
2023-03-30T16:00:14.701Z,3.47
2023-03-30T16:02:47.719Z,2.83
2023-03-30T16:05:22.705Z,3.28
2023-03-30T16:07:49.644Z,3.65
2023-03-30T16:10:20.914Z,3.75
2023-03-30T16:12:48.593Z,3.13
2023-03-30T16:15:17.798Z,3.58
2023-03-30T16:17:44.729Z,3.78
2023-03-30T16:20:21.655Z,3.97
2023-03-30T16:22:48.775Z,3.50
2023-03-30T16:25:17.385Z,3.95
2023-03-30T16:27:44.339Z,3.30
2023-03-30T16:30:33.993Z,3.72
2023-03-30T16:33:01.579Z,3.38
2023-03-30T16:35:28.377Z,3.33
2023-03-30T16:37:59.308Z,4.10
2023-03-30T16:40:40.847Z,3.60
2023-03-30T16:43:08.889Z,4.00
2023-03-30T16:45:35.537Z,3.75
2023-03-30T16:48:02.190Z,3.67
2023-03-30T16:50:53.535Z,2.70
2023-03-30T16:53:20.331Z,3.17
2023-03-30T16:55:48.820Z,3.40
2023-03-30T16:58:16.389Z,3.28
2023-03-30T17:00:46.598Z,3.42
2023-03-30T17:03:13.497Z,3.08
2023-03-30T17:05:40.489Z,3.50
2023-03-30T17:08:23.599Z,3.65
2023-03-30T17:10:52.021Z,3.50
2023-03-30T17:13:18.800Z,3.53
2023-03-30T17:15:45.556Z,3.42
2023-03-30T17:18:21.466Z,3.47
2023-03-30T17:20:53.244Z,3.33
2023-03-30T17:23:21.522Z,4.90
2023-03-30T17:25:49.432Z,3.30
2023-03-30T17:28:38.924Z,3.38
2023-03-30T17:31:11.952Z,3.92
2023-03-30T17:33:38.760Z,3.95
2023-03-30T17:36:12.688Z,3.15
2023-03-30T17:38:41.001Z,3.90
2023-03-30T17:41:12.146Z,3.28
2023-03-30T17:43:43.400Z,3.25
2023-03-30T17:46:13.057Z,2.88
2023-03-30T17:48:43.132Z,3.13
2023-03-30T17:51:10.028Z,3.60
2023-03-30T17:53:36.971Z,2.80
2023-03-30T17:56:03.701Z,3.10
2023-03-30T17:58:34.082Z,3.15
2023-03-30T18:01:03.373Z,3.10
2023-03-30T18:03:30.373Z,3.33
2023-03-30T18:06:00.141Z,3.30
2023-03-30T18:08:29.712Z,3.15
2023-03-30T18:11:00.689Z,3.50
2023-03-30T18:13:29.690Z,3.17
2023-03-30T18:16:00.682Z,3.33
2023-03-30T18:18:31.173Z,3.38
2023-03-30T18:21:04.422Z,3.53
2023-03-30T18:23:33.894Z,3.42
2023-03-30T18:26:01.598Z,4.30
2023-03-30T18:28:31.638Z,3.78
2023-03-30T18:31:00.516Z,4.35
2023-03-30T18:33:28.490Z,3.75
2023-03-30T18:36:04.583Z,3.60
2023-03-30T18:38:33.245Z,3.25
2023-03-30T18:41:01.167Z,4.00
2023-03-30T18:43:27.724Z,4.25
2023-03-30T18:46:02.473Z,4.80
2023-03-30T18:48:29.558Z,5.25
2023-03-30T18:51:00.506Z,4.43
2023-03-30T18:53:29.891Z,3.65
2023-03-30T18:56:00.666Z,3.38
2023-03-30T18:58:41.678Z,4.05
2023-03-30T19:01:08.580Z,4.07
2023-03-30T19:03:35.126Z,4.18
2023-03-30T19:06:01.690Z,3.95
2023-03-30T19:08:28.968Z,3.47
2023-03-30T19:10:57.779Z,3.63
2023-03-30T19:13:28.600Z,3.63
2023-03-30T19:15:58.018Z,3.20
2023-03-30T19:18:24.488Z,3.88
2023-03-30T19:20:51.912Z,3.83
2023-03-30T19:23:19.492Z,3.63
2023-03-30T19:25:46.142Z,3.83
2023-03-30T19:28:14.941Z,3.42
2023-03-30T19:30:41.732Z,4.07
2023-03-30T19:33:12.061Z,4.10
2023-03-30T19:35:45.500Z,3.05
2023-03-30T19:38:13.073Z,3.35
2023-03-30T19:40:40.420Z,3.80
2023-03-30T19:43:07.729Z,3.30
2023-03-30T19:45:34.403Z,3.72
2023-03-30T19:48:01.071Z,3.10
2023-03-30T19:50:30.823Z,3.08
2023-03-30T19:52:58.673Z,3.08
2023-03-30T19:55:29.830Z,4.30
2023-03-30T19:57:59.729Z,3.22
2023-03-30T20:00:27.197Z,3.40
2023-03-30T20:02:54.909Z,3.22
2023-03-30T20:05:36.068Z,3.25
2023-03-30T20:08:07.948Z,3.60
2023-03-30T20:10:49.141Z,3.70
2023-03-30T20:13:17.128Z,2.78
2023-03-30T20:15:45.989Z,3.65
2023-03-30T20:18:12.605Z,4.15
2023-03-30T20:20:39.094Z,2.95
2023-03-30T20:23:05.664Z,2.85
2023-03-30T20:25:32.832Z,4.35
2023-03-30T20:27:59.238Z,3.10
2023-03-30T20:30:25.768Z,3.35
2023-03-30T20:33:06.791Z,3.25
2023-03-30T20:35:37.779Z,3.83
2023-03-30T20:38:05.822Z,3.85
2023-03-30T20:40:32.753Z,4.38
2023-03-30T20:43:03.237Z,3.10
2023-03-30T20:45:32.787Z,4.00
2023-03-30T20:48:08.534Z,3.03
2023-03-30T20:50:35.224Z,3.67
2023-03-30T20:53:02.122Z,3.97
2023-03-30T20:55:32.448Z,3.45
2023-03-30T20:58:00.661Z,3.38
2023-03-30T21:00:27.463Z,3.45
2023-03-30T21:02:54.201Z,3.38
2023-03-30T21:05:20.993Z,4.32
2023-03-30T21:07:47.974Z,4.05
2023-03-30T21:10:16.261Z,3.63
2023-03-30T21:12:42.924Z,2.83
2023-03-30T21:15:10.072Z,3.50
2023-03-30T21:17:36.780Z,3.20
2023-03-30T21:20:08.243Z,3.83
2023-03-30T21:22:35.849Z,3.42
2023-03-30T21:25:03.171Z,4.15
2023-03-30T21:27:32.243Z,3.55
2023-03-30T21:29:58.941Z,3.70
2023-03-30T21:32:25.850Z,3.85
2023-03-30T21:34:52.584Z,4.90
2023-03-30T21:37:19.243Z,4.40
2023-03-30T21:39:46.587Z,4.03
2023-03-30T21:42:13.074Z,3.10
2023-03-30T21:44:39.514Z,3.72
2023-03-30T21:47:05.948Z,3.67
2023-03-30T21:49:37.331Z,3.72
2023-03-30T21:52:06.905Z,3.15
2023-03-30T21:54:36.404Z,3.67
2023-03-30T21:57:06.006Z,2.63
2023-03-30T21:59:35.697Z,3.58
2023-03-30T22:02:04.270Z,3.35
2023-03-30T22:04:30.827Z,3.92
2023-03-30T22:06:57.318Z,3.45
2023-03-30T22:09:23.751Z,3.80
2023-03-30T22:11:52.484Z,2.97
2023-03-30T22:14:18.958Z,3.22
2023-03-30T22:16:46.751Z,3.33
2023-03-30T22:19:13.467Z,3.08
2023-03-30T22:21:39.903Z,3.10
2023-03-30T22:24:07.706Z,3.40
2023-03-30T22:26:38.453Z,2.83
2023-03-30T22:29:08.211Z,3.33
2023-03-30T22:31:37.994Z,3.53
2023-03-30T22:34:08.784Z,2.80
2023-03-30T22:36:39.448Z,2.92
2023-03-30T22:39:06.803Z,3.30
2023-03-30T22:41:33.259Z,3.30
2023-03-30T22:43:59.789Z,3.13
2023-03-30T22:46:27.701Z,3.05
2023-03-30T22:48:55.885Z,3.30
2023-03-30T22:51:26.150Z,3.47
2023-03-30T22:53:57.746Z,3.60
2023-03-30T22:56:24.189Z,2.70
2023-03-30T22:58:50.648Z,3.20
2023-03-30T23:01:17.425Z,2.63
2023-03-30T23:03:44.059Z,3.42
2023-03-30T23:06:10.678Z,3.03
2023-03-30T23:08:40.632Z,2.63
2023-03-30T23:11:08.308Z,3.58
2023-03-30T23:13:41.941Z,4.05
2023-03-30T23:16:08.906Z,3.13
2023-03-30T23:18:37.806Z,2.83
2023-03-30T23:21:10.858Z,2.60
2023-03-30T23:23:40.666Z,3.35
2023-03-30T23:26:10.224Z,2.42
2023-03-30T23:28:42.356Z,3.05
2023-03-30T23:31:17.595Z,2.92
2023-03-30T23:33:44.734Z,2.88
2023-03-30T23:36:17.208Z,2.33
2023-03-30T23:38:44.065Z,2.58
2023-03-30T23:41:13.219Z,2.65
2023-03-30T23:43:42.987Z,3.05
2023-03-30T23:46:13.388Z,2.95
2023-03-30T23:48:42.141Z,2.17
2023-03-30T23:51:12.296Z,2.47
2023-03-30T23:53:42.426Z,2.67
2023-03-30T23:56:13.689Z,2.00
2023-03-30T23:58:42.796Z,2.63
